This is the latest recevied weather packets stored in our database for station/object W5HKR. If no packets are shown the sender has not sent any weather packets the latest 10 day(s).
| Time | Temp. | Humidity | Pressure | Rain* | Wind** | Luminosity | Snow |
|---|---|---|---|---|---|---|---|
| 1778170702 | 18.33° C | 91% | 990.6 hPa | 0 mm | - | - | - |
| 1778170402 | 16.67° C | 81% | 988.8 hPa | 0 mm | - | - | - |
| 1778170103 | 16.67° C | 81% | 988.8 hPa | 0 mm | - | - | - |
| 1778169833 | 16.67° C | 81% | 988.8 hPa | 0 mm | - | - | - |
| 1778169801 | 18.33° C | 91% | 990.6 hPa | 0 mm | - | - | - |
| 1778169502 | 18.33° C | 91% | 990.6 hPa | 0 mm | - | - | - |
| 1778169204 | 18.33° C | 91% | 990.6 hPa | 0 mm | - | - | - |
| 1778168903 | 18.33° C | 91% | 990.6 hPa | 0 mm | - | - | - |
| 1778168752 | 16.67° C | 81% | 988.8 hPa | 0 mm | - | - | - |
| 1778168602 | 16.67° C | 81% | 988.8 hPa | 0 mm | - | - | - |
| 1778168005 | 16.67° C | 81% | 989.1 hPa | 0 mm | - | - | - |
| 1778167674 | 18.33° C | 91% | 990.6 hPa | 0 mm | - | - | - |
| 1778167403 | 16.67° C | 81% | 988.6 hPa | 0 mm | - | - | - |
| 1778167103 | 17.22° C | 80% | 988.6 hPa | 0 mm | - | - | - |
| 1778166803 | 18.33° C | 91% | 990.6 hPa | 0 mm | - | - | - |
| 1778166594 | 18.33° C | 91% | 990.6 hPa | 0 mm | - | - | - |
| 1778166202 | 18.33° C | 91% | 990.6 hPa | 0 mm | - | - | - |
| 1778165602 | 16.67° C | 81% | 988.8 hPa | 0 mm | - | - | - |
| 1778165514 | 18.33° C | 91% | 990.6 hPa | 0 mm | - | - | - |
| 1778165303 | 18.33° C | 91% | 990.6 hPa | 0 mm | - | - | - |
| 1778165003 | 18.33° C | 91% | 990.6 hPa | 0 mm | - | - | - |
| 1778164704 | 18.33° C | 91% | 990.6 hPa | 0 mm | - | - | - |
| 1778164433 | 16.11° C | 84% | 988.6 hPa | 0 mm | - | - | - |
| 1778164403 | 18.33° C | 91% | 990.6 hPa | 0 mm | - | - | - |
| 1778163802 | 16.11° C | 85% | 988.5 hPa | 0 mm | - | - | - |
* Rain latest hour (hover to see other rain measurements)
** Current wind speed in m/s (hover to see current wind gust speed)